sensor_id;sensor_type;location;lat;lon;timestamp;temperature;humidity
7498;DHT22;3790;48.806;9.140;2023-04-03T00:03:29;3.60;99.90
7498;DHT22;3790;48.806;9.140;2023-04-03T00:08:29;3.50;99.90
7498;DHT22;3790;48.806;9.140;2023-04-03T00:13:33;3.40;99.90
7498;DHT22;3790;48.806;9.140;2023-04-03T00:18:38;3.40;99.90
7498;DHT22;3790;48.806;9.140;2023-04-03T00:23:39;3.40;99.90
7498;DHT22;3790;48.806;9.140;2023-04-03T00:28:39;3.40;99.90
7498;DHT22;3790;48.806;9.140;2023-04-03T00:33:40;3.60;99.90
7498;DHT22;3790;48.806;9.140;2023-04-03T00:38:40;3.60;99.90
7498;DHT22;3790;48.806;9.140;2023-04-03T00:43:41;3.60;99.90
7498;DHT22;3790;48.806;9.140;2023-04-03T00:48:44;3.50;99.90
7498;DHT22;3790;48.806;9.140;2023-04-03T00:53:58;3.40;99.90
7498;DHT22;3790;48.806;9.140;2023-04-03T00:59:12;3.30;99.90
7498;DHT22;3790;48.806;9.140;2023-04-03T01:04:31;3.30;99.90
7498;DHT22;3790;48.806;9.140;2023-04-03T01:09:33;3.30;99.90
7498;DHT22;3790;48.806;9.140;2023-04-03T01:14:34;3.30;99.90
7498;DHT22;3790;48.806;9.140;2023-04-03T01:19:38;3.20;99.90
7498;DHT22;3790;48.806;9.140;2023-04-03T01:24:42;3.10;99.90
7498;DHT22;3790;48.806;9.140;2023-04-03T01:29:43;3.10;99.90
7498;DHT22;3790;48.806;9.140;2023-04-03T01:34:43;3.10;99.90
7498;DHT22;3790;48.806;9.140;2023-04-03T01:39:44;3.10;99.90
7498;DHT22;3790;48.806;9.140;2023-04-03T01:44:45;3.20;99.90
7498;DHT22;3790;48.806;9.140;2023-04-03T01:49:46;3.20;99.90
7498;DHT22;3790;48.806;9.140;2023-04-03T01:54:46;3.30;99.90
7498;DHT22;3790;48.806;9.140;2023-04-03T01:59:47;3.30;99.90
7498;DHT22;3790;48.806;9.140;2023-04-03T02:04:47;3.20;99.90
7498;DHT22;3790;48.806;9.140;2023-04-03T02:09:51;3.20;99.90
7498;DHT22;3790;48.806;9.140;2023-04-03T02:14:51;3.20;99.90
7498;DHT22;3790;48.806;9.140;2023-04-03T02:19:52;3.30;99.90
7498;DHT22;3790;48.806;9.140;2023-04-03T02:24:52;3.40;99.90
7498;DHT22;3790;48.806;9.140;2023-04-03T02:29:53;3.40;99.90
7498;DHT22;3790;48.806;9.140;2023-04-03T02:34:53;3.30;99.90
7498;DHT22;3790;48.806;9.140;2023-04-03T02:39:54;3.40;99.90
7498;DHT22;3790;48.806;9.140;2023-04-03T02:44:55;3.40;99.90
7498;DHT22;3790;48.806;9.140;2023-04-03T02:49:55;3.50;99.90
7498;DHT22;3790;48.806;9.140;2023-04-03T02:54:56;3.50;99.90
7498;DHT22;3790;48.806;9.140;2023-04-03T02:59:56;3.50;99.90
7498;DHT22;3790;48.806;9.140;2023-04-03T03:04:57;3.50;99.90
7498;DHT22;3790;48.806;9.140;2023-04-03T03:09:57;3.60;99.90
7498;DHT22;3790;48.806;9.140;2023-04-03T03:14:58;3.60;99.90
7498;DHT22;3790;48.806;9.140;2023-04-03T03:19:58;3.80;99.90
7498;DHT22;3790;48.806;9.140;2023-04-03T03:24:59;3.70;99.90
7498;DHT22;3790;48.806;9.140;2023-04-03T03:30:01;3.60;99.90
7498;DHT22;3790;48.806;9.140;2023-04-03T03:35:01;3.70;99.90
7498;DHT22;3790;48.806;9.140;2023-04-03T03:40:02;3.60;99.90
7498;DHT22;3790;48.806;9.140;2023-04-03T03:45:03;3.60;99.90
7498;DHT22;3790;48.806;9.140;2023-04-03T03:50:04;3.50;99.90
7498;DHT22;3790;48.806;9.140;2023-04-03T03:55:05;3.50;99.90
7498;DHT22;3790;48.806;9.140;2023-04-03T04:00:06;3.50;99.90
7498;DHT22;3790;48.806;9.140;2023-04-03T04:05:07;3.50;99.90
7498;DHT22;3790;48.806;9.140;2023-04-03T04:10:08;3.50;99.90
7498;DHT22;3790;48.806;9.140;2023-04-03T04:15:10;3.50;99.90
7498;DHT22;3790;48.806;9.140;2023-04-03T04:20:11;3.40;99.90
7498;DHT22;3790;48.806;9.140;2023-04-03T04:25:12;3.40;99.90
7498;DHT22;3790;48.806;9.140;2023-04-03T04:30:13;3.50;99.90
7498;DHT22;3790;48.806;9.140;2023-04-03T04:35:13;3.50;99.90
7498;DHT22;3790;48.806;9.140;2023-04-03T04:40:14;3.50;99.90
7498;DHT22;3790;48.806;9.140;2023-04-03T04:45:15;3.50;99.90
7498;DHT22;3790;48.806;9.140;2023-04-03T04:50:18;3.50;99.90
7498;DHT22;3790;48.806;9.140;2023-04-03T04:55:18;3.50;99.90
7498;DHT22;3790;48.806;9.140;2023-04-03T05:00:19;3.40;99.90
7498;DHT22;3790;48.806;9.140;2023-04-03T05:05:20;3.50;99.90
7498;DHT22;3790;48.806;9.140;2023-04-03T05:10:20;3.50;99.90
7498;DHT22;3790;48.806;9.140;2023-04-03T05:15:21;3.70;99.90
7498;DHT22;3790;48.806;9.140;2023-04-03T05:20:21;3.60;99.90
7498;DHT22;3790;48.806;9.140;2023-04-03T05:25:22;3.60;99.90
7498;DHT22;3790;48.806;9.140;2023-04-03T05:30:23;3.70;99.90
7498;DHT22;3790;48.806;9.140;2023-04-03T05:35:23;3.60;99.90
7498;DHT22;3790;48.806;9.140;2023-04-03T05:40:24;3.70;99.90
7498;DHT22;3790;48.806;9.140;2023-04-03T05:45:24;3.80;99.90
7498;DHT22;3790;48.806;9.140;2023-04-03T05:50:25;3.80;99.90
7498;DHT22;3790;48.806;9.140;2023-04-03T05:55:26;3.80;99.90
7498;DHT22;3790;48.806;9.140;2023-04-03T06:00:26;3.60;99.90
7498;DHT22;3790;48.806;9.140;2023-04-03T06:05:28;3.70;99.90
7498;DHT22;3790;48.806;9.140;2023-04-03T06:10:28;3.90;99.90
7498;DHT22;3790;48.806;9.140;2023-04-03T06:15:29;3.80;99.90
7498;DHT22;3790;48.806;9.140;2023-04-03T06:20:29;4.00;99.90
7498;DHT22;3790;48.806;9.140;2023-04-03T06:25:31;4.00;99.90
7498;DHT22;3790;48.806;9.140;2023-04-03T06:30:32;4.00;99.90
7498;DHT22;3790;48.806;9.140;2023-04-03T06:35:32;4.20;99.90
7498;DHT22;3790;48.806;9.140;2023-04-03T06:40:35;4.20;99.90
7498;DHT22;3790;48.806;9.140;2023-04-03T06:45:36;4.30;99.90
7498;DHT22;3790;48.806;9.140;2023-04-03T06:50:36;4.30;99.90
7498;DHT22;3790;48.806;9.140;2023-04-03T06:55:37;4.30;99.90
7498;DHT22;3790;48.806;9.140;2023-04-03T07:00:40;4.20;99.90
7498;DHT22;3790;48.806;9.140;2023-04-03T07:05:41;4.20;99.90
7498;DHT22;3790;48.806;9.140;2023-04-03T07:10:44;4.30;99.90
7498;DHT22;3790;48.806;9.140;2023-04-03T07:15:45;4.40;99.90
7498;DHT22;3790;48.806;9.140;2023-04-03T07:20:46;4.70;99.90
7498;DHT22;3790;48.806;9.140;2023-04-03T07:25:47;4.90;99.90
7498;DHT22;3790;48.806;9.140;2023-04-03T07:30:51;5.10;99.90
7498;DHT22;3790;48.806;9.140;2023-04-03T07:35:52;5.30;99.90
7498;DHT22;3790;48.806;9.140;2023-04-03T07:40:52;5.00;99.90
7498;DHT22;3790;48.806;9.140;2023-04-03T07:45:53;5.20;99.90
7498;DHT22;3790;48.806;9.140;2023-04-03T07:50:59;5.30;99.90
7498;DHT22;3790;48.806;9.140;2023-04-03T07:56:00;5.50;99.90
7498;DHT22;3790;48.806;9.140;2023-04-03T08:01:03;5.70;99.90
7498;DHT22;3790;48.806;9.140;2023-04-03T08:06:05;6.00;99.90
7498;DHT22;3790;48.806;9.140;2023-04-03T08:11:06;6.60;99.90
7498;DHT22;3790;48.806;9.140;2023-04-03T08:16:13;6.70;99.90
7498;DHT22;3790;48.806;9.140;2023-04-03T08:21:16;6.80;99.90
7498;DHT22;3790;48.806;9.140;2023-04-03T08:26:20;6.80;99.90
7498;DHT22;3790;48.806;9.140;2023-04-03T08:31:21;6.60;99.90
7498;DHT22;3790;48.806;9.140;2023-04-03T08:36:27;6.70;99.90
7498;DHT22;3790;48.806;9.140;2023-04-03T08:41:41;7.20;99.90
7498;DHT22;3790;48.806;9.140;2023-04-03T08:46:46;7.30;99.90
7498;DHT22;3790;48.806;9.140;2023-04-03T08:51:49;7.10;99.90
7498;DHT22;3790;48.806;9.140;2023-04-03T08:56:51;6.60;99.90
7498;DHT22;3790;48.806;9.140;2023-04-03T09:01:53;6.70;99.90
7498;DHT22;3790;48.806;9.140;2023-04-03T09:06:59;7.20;99.90
7498;DHT22;3790;48.806;9.140;2023-04-03T09:22:43;8.00;99.90
7498;DHT22;3790;48.806;9.140;2023-04-03T09:27:44;7.70;99.90
7498;DHT22;3790;48.806;9.140;2023-04-03T09:32:47;7.00;99.90
7498;DHT22;3790;48.806;9.140;2023-04-03T09:37:50;6.90;99.90
7498;DHT22;3790;48.806;9.140;2023-04-03T09:48:25;7.00;99.90
7498;DHT22;3790;48.806;9.140;2023-04-03T09:53:37;7.60;99.90
7498;DHT22;3790;48.806;9.140;2023-04-03T09:58:39;7.40;99.90
7498;DHT22;3790;48.806;9.140;2023-04-03T10:03:44;7.30;99.90
7498;DHT22;3790;48.806;9.140;2023-04-03T10:09:15;7.30;99.90
7498;DHT22;3790;48.806;9.140;2023-04-03T10:14:17;7.40;99.90
7498;DHT22;3790;48.806;9.140;2023-04-03T10:19:24;7.70;99.90
7498;DHT22;3790;48.806;9.140;2023-04-03T10:30:19;7.90;99.90
7498;DHT22;3790;48.806;9.140;2023-04-03T10:35:44;8.00;99.90
7498;DHT22;3790;48.806;9.140;2023-04-03T10:46:03;7.00;99.90
7498;DHT22;3790;48.806;9.140;2023-04-03T10:56:41;7.00;99.90
7498;DHT22;3790;48.806;9.140;2023-04-03T11:01:45;7.00;99.90
7498;DHT22;3790;48.806;9.140;2023-04-03T11:06:57;7.00;99.90
7498;DHT22;3790;48.806;9.140;2023-04-03T11:12:06;7.20;99.90
7498;DHT22;3790;48.806;9.140;2023-04-03T11:22:27;7.90;99.90
7498;DHT22;3790;48.806;9.140;2023-04-03T11:28:15;8.10;99.90
7498;DHT22;3790;48.806;9.140;2023-04-03T11:33:24;7.50;99.90
7498;DHT22;3790;48.806;9.140;2023-04-03T11:38:31;7.00;99.90
7498;DHT22;3790;48.806;9.140;2023-04-03T11:43:42;7.10;99.90
7498;DHT22;3790;48.806;9.140;2023-04-03T11:48:45;7.50;99.90
7498;DHT22;3790;48.806;9.140;2023-04-03T11:53:47;7.50;99.90
7498;DHT22;3790;48.806;9.140;2023-04-03T12:04:17;8.00;99.90
7498;DHT22;3790;48.806;9.140;2023-04-03T12:14:45;8.40;99.90
7498;DHT22;3790;48.806;9.140;2023-04-03T12:19:45;8.20;99.90
7498;DHT22;3790;48.806;9.140;2023-04-03T12:24:52;7.90;99.90
7498;DHT22;3790;48.806;9.140;2023-04-03T12:30:12;7.70;99.90
7498;DHT22;3790;48.806;9.140;2023-04-03T12:35:37;7.70;99.90
7498;DHT22;3790;48.806;9.140;2023-04-03T12:40:48;8.10;99.90
7498;DHT22;3790;48.806;9.140;2023-04-03T12:51:05;8.80;99.80
7498;DHT22;3790;48.806;9.140;2023-04-03T12:56:25;8.60;99.90
7498;DHT22;3790;48.806;9.140;2023-04-03T13:01:27;8.60;99.90
7498;DHT22;3790;48.806;9.140;2023-04-03T13:06:32;8.50;99.90
7498;DHT22;3790;48.806;9.140;2023-04-03T13:11:36;8.70;99.90
7498;DHT22;3790;48.806;9.140;2023-04-03T13:16:37;8.80;99.90
7498;DHT22;3790;48.806;9.140;2023-04-03T13:21:41;9.20;99.90
7498;DHT22;3790;48.806;9.140;2023-04-03T13:26:44;9.80;99.40
7498;DHT22;3790;48.806;9.140;2023-04-03T13:31:45;10.20;97.30
7498;DHT22;3790;48.806;9.140;2023-04-03T13:42:01;9.00;99.00
7498;DHT22;3790;48.806;9.140;2023-04-03T13:47:21;8.90;98.00
7498;DHT22;3790;48.806;9.140;2023-04-03T13:52:29;9.10;97.90
7498;DHT22;3790;48.806;9.140;2023-04-03T13:57:30;9.20;96.50
7498;DHT22;3790;48.806;9.140;2023-04-03T14:02:33;9.90;95.70
7498;DHT22;3790;48.806;9.140;2023-04-03T14:07:34;10.60;94.40
7498;DHT22;3790;48.806;9.140;2023-04-03T14:12:37;9.80;94.20
7498;DHT22;3790;48.806;9.140;2023-04-03T14:17:39;9.00;96.20
7498;DHT22;3790;48.806;9.140;2023-04-03T14:22:39;8.70;96.40
7498;DHT22;3790;48.806;9.140;2023-04-03T14:27:43;8.60;96.90
7498;DHT22;3790;48.806;9.140;2023-04-03T14:32:44;8.50;97.40
7498;DHT22;3790;48.806;9.140;2023-04-03T14:37:46;8.80;96.70
7498;DHT22;3790;48.806;9.140;2023-04-03T14:42:47;9.40;96.20
7498;DHT22;3790;48.806;9.140;2023-04-03T14:47:51;9.40;94.80
7498;DHT22;3790;48.806;9.140;2023-04-03T14:52:55;9.70;95.30
7498;DHT22;3790;48.806;9.140;2023-04-03T14:57:56;12.50;92.60
7498;DHT22;3790;48.806;9.140;2023-04-03T15:02:57;16.40;82.60
7498;DHT22;3790;48.806;9.140;2023-04-03T15:07:58;11.90;82.80
7498;DHT22;3790;48.806;9.140;2023-04-03T15:13:00;10.20;86.60
7498;DHT22;3790;48.806;9.140;2023-04-03T15:18:01;9.80;90.50
7498;DHT22;3790;48.806;9.140;2023-04-03T15:23:02;9.40;90.70
7498;DHT22;3790;48.806;9.140;2023-04-03T15:28:02;9.50;91.30
7498;DHT22;3790;48.806;9.140;2023-04-03T15:33:03;12.90;86.20
7498;DHT22;3790;48.806;9.140;2023-04-03T15:38:03;12.60;84.20
7498;DHT22;3790;48.806;9.140;2023-04-03T15:43:07;11.90;79.40
7498;DHT22;3790;48.806;9.140;2023-04-03T15:48:08;9.40;88.30
7498;DHT22;3790;48.806;9.140;2023-04-03T15:53:10;12.20;83.50
7498;DHT22;3790;48.806;9.140;2023-04-03T15:58:13;15.60;78.10
7498;DHT22;3790;48.806;9.140;2023-04-03T16:03:19;20.00;65.20
7498;DHT22;3790;48.806;9.140;2023-04-03T16:08:20;20.70;53.40
7498;DHT22;3790;48.806;9.140;2023-04-03T16:13:20;19.10;53.00
7498;DHT22;3790;48.806;9.140;2023-04-03T16:18:21;17.60;56.90
7498;DHT22;3790;48.806;9.140;2023-04-03T16:23:22;20.10;55.80
7498;DHT22;3790;48.806;9.140;2023-04-03T16:28:23;19.20;51.60
7498;DHT22;3790;48.806;9.140;2023-04-03T16:33:24;15.30;52.70
7498;DHT22;3790;48.806;9.140;2023-04-03T16:38:25;10.10;61.70
7498;DHT22;3790;48.806;9.140;2023-04-03T16:43:26;8.00;71.80
7498;DHT22;3790;48.806;9.140;2023-04-03T16:48:27;7.10;78.30
7498;DHT22;3790;48.806;9.140;2023-04-03T16:53:28;11.90;74.40
7498;DHT22;3790;48.806;9.140;2023-04-03T16:58:28;11.00;67.60
7498;DHT22;3790;48.806;9.140;2023-04-03T17:03:31;8.60;75.20
7498;DHT22;3790;48.806;9.140;2023-04-03T17:08:32;7.90;78.60
7498;DHT22;3790;48.806;9.140;2023-04-03T17:13:32;7.60;80.30
7498;DHT22;3790;48.806;9.140;2023-04-03T17:18:34;7.20;82.50
7498;DHT22;3790;48.806;9.140;2023-04-03T17:23:38;6.80;84.30
7498;DHT22;3790;48.806;9.140;2023-04-03T17:28:42;6.50;86.20
7498;DHT22;3790;48.806;9.140;2023-04-03T17:33:43;6.30;88.50
7498;DHT22;3790;48.806;9.140;2023-04-03T17:38:44;6.10;90.90
7498;DHT22;3790;48.806;9.140;2023-04-03T17:43:44;5.90;91.00
7498;DHT22;3790;48.806;9.140;2023-04-03T17:48:45;5.60;92.00
7498;DHT22;3790;48.806;9.140;2023-04-03T17:53:47;5.30;92.60
7498;DHT22;3790;48.806;9.140;2023-04-03T17:58:50;5.30;93.50
7498;DHT22;3790;48.806;9.140;2023-04-03T18:03:53;5.40;93.30
7498;DHT22;3790;48.806;9.140;2023-04-03T18:09:06;5.40;93.90
7498;DHT22;3790;48.806;9.140;2023-04-03T18:14:08;5.30;94.60
7498;DHT22;3790;48.806;9.140;2023-04-03T18:19:09;5.10;95.30
7498;DHT22;3790;48.806;9.140;2023-04-03T18:24:13;5.10;96.20
7498;DHT22;3790;48.806;9.140;2023-04-03T18:29:14;5.10;96.80
7498;DHT22;3790;48.806;9.140;2023-04-03T18:34:15;5.10;96.10
7498;DHT22;3790;48.806;9.140;2023-04-03T18:39:16;5.00;96.60
7498;DHT22;3790;48.806;9.140;2023-04-03T18:44:20;5.00;96.10
7498;DHT22;3790;48.806;9.140;2023-04-03T18:49:22;5.10;96.30
7498;DHT22;3790;48.806;9.140;2023-04-03T18:54:26;5.00;96.90
7498;DHT22;3790;48.806;9.140;2023-04-03T18:59:26;4.90;96.80
7498;DHT22;3790;48.806;9.140;2023-04-03T19:04:27;4.60;97.30
7498;DHT22;3790;48.806;9.140;2023-04-03T19:09:28;4.50;97.70
7498;DHT22;3790;48.806;9.140;2023-04-03T19:14:36;4.30;98.20
7498;DHT22;3790;48.806;9.140;2023-04-03T19:19:37;4.20;98.60
7498;DHT22;3790;48.806;9.140;2023-04-03T19:24:38;4.10;99.10
7498;DHT22;3790;48.806;9.140;2023-04-03T19:29:38;4.00;98.80
7498;DHT22;3790;48.806;9.140;2023-04-03T19:34:39;4.00;99.90
7498;DHT22;3790;48.806;9.140;2023-04-03T19:39:39;4.20;99.90
7498;DHT22;3790;48.806;9.140;2023-04-03T19:44:40;4.30;99.70
7498;DHT22;3790;48.806;9.140;2023-04-03T19:49:42;4.30;99.80
7498;DHT22;3790;48.806;9.140;2023-04-03T19:54:42;4.30;99.00
7498;DHT22;3790;48.806;9.140;2023-04-03T19:59:43;4.30;99.90
7498;DHT22;3790;48.806;9.140;2023-04-03T20:04:43;4.20;99.70
7498;DHT22;3790;48.806;9.140;2023-04-03T20:09:44;4.10;99.90
7498;DHT22;3790;48.806;9.140;2023-04-03T20:14:47;4.00;99.70
7498;DHT22;3790;48.806;9.140;2023-04-03T20:19:47;3.80;99.90
7498;DHT22;3790;48.806;9.140;2023-04-03T20:24:48;3.60;99.90
7498;DHT22;3790;48.806;9.140;2023-04-03T20:29:49;3.40;99.90
7498;DHT22;3790;48.806;9.140;2023-04-03T20:34:50;3.30;99.90
7498;DHT22;3790;48.806;9.140;2023-04-03T20:39:55;3.00;99.90
7498;DHT22;3790;48.806;9.140;2023-04-03T20:44:55;2.90;99.90
7498;DHT22;3790;48.806;9.140;2023-04-03T20:49:56;2.80;99.90
7498;DHT22;3790;48.806;9.140;2023-04-03T20:54:57;2.70;99.90
7498;DHT22;3790;48.806;9.140;2023-04-03T20:59:59;2.60;99.90
7498;DHT22;3790;48.806;9.140;2023-04-03T21:05:04;2.40;99.90
7498;DHT22;3790;48.806;9.140;2023-04-03T21:20:49;2.30;99.90
7498;DHT22;3790;48.806;9.140;2023-04-03T21:25:50;2.10;99.90
7498;DHT22;3790;48.806;9.140;2023-04-03T21:30:50;2.10;99.90
7498;DHT22;3790;48.806;9.140;2023-04-03T21:35:50;1.90;99.90
7498;DHT22;3790;48.806;9.140;2023-04-03T21:40:57;1.90;99.90
7498;DHT22;3790;48.806;9.140;2023-04-03T21:45:58;1.70;99.90
7498;DHT22;3790;48.806;9.140;2023-04-03T21:51:03;1.70;99.90
7498;DHT22;3790;48.806;9.140;2023-04-03T21:56:04;1.50;99.90
7498;DHT22;3790;48.806;9.140;2023-04-03T22:01:10;1.50;99.90
7498;DHT22;3790;48.806;9.140;2023-04-03T22:06:12;1.40;99.90
7498;DHT22;3790;48.806;9.140;2023-04-03T22:11:14;1.40;99.90
7498;DHT22;3790;48.806;9.140;2023-04-03T22:16:14;1.40;99.90
7498;DHT22;3790;48.806;9.140;2023-04-03T22:21:15;1.20;99.90
7498;DHT22;3790;48.806;9.140;2023-04-03T22:26:18;1.10;99.90
7498;DHT22;3790;48.806;9.140;2023-04-03T22:31:18;1.00;99.90
7498;DHT22;3790;48.806;9.140;2023-04-03T22:36:20;1.00;99.90
7498;DHT22;3790;48.806;9.140;2023-04-03T22:41:20;1.00;99.90
7498;DHT22;3790;48.806;9.140;2023-04-03T22:46:21;0.80;99.90
7498;DHT22;3790;48.806;9.140;2023-04-03T22:51:22;0.70;99.90
7498;DHT22;3790;48.806;9.140;2023-04-03T22:56:22;0.70;99.90
7498;DHT22;3790;48.806;9.140;2023-04-03T23:01:23;0.60;99.90
7498;DHT22;3790;48.806;9.140;2023-04-03T23:06:24;0.40;99.90
7498;DHT22;3790;48.806;9.140;2023-04-03T23:11:26;0.40;99.90
7498;DHT22;3790;48.806;9.140;2023-04-03T23:16:26;0.30;99.90
7498;DHT22;3790;48.806;9.140;2023-04-03T23:21:27;0.10;99.90
7498;DHT22;3790;48.806;9.140;2023-04-03T23:26:27;0.00;99.90
7498;DHT22;3790;48.806;9.140;2023-04-03T23:31:28;-0.10;99.90
7498;DHT22;3790;48.806;9.140;2023-04-03T23:36:28;-0.20;99.90
7498;DHT22;3790;48.806;9.140;2023-04-03T23:41:29;-0.30;99.90
7498;DHT22;3790;48.806;9.140;2023-04-03T23:46:29;-0.40;99.90
7498;DHT22;3790;48.806;9.140;2023-04-03T23:51:30;-0.50;99.90
7498;DHT22;3790;48.806;9.140;2023-04-03T23:56:30;-0.50;99.90
